Aurora, Canada
Current Conditions -  °F | °C
As of 5:00 AM on Thursday 29 Jan 2015 (Local Time) from CYKZ Reporting Station
Overcast Overcast  
Wind Chill: 17°   Ceiling: 6000
Heat Index: 25°   Visibility: 12mi
Dew Point: 16°   Wind: 7mph
Humidity: 69%   Direction: 160°SSE
Pressure: 30.14"   Gusts: NA
Location:  44°N, 79.47°W
Report Text: CYKZ 291000Z 16006KT 12SM OVC060 M04/M09 A3014 RMK ST8 SLP216
Loading
Personal Weather Stations






























Interactive Weather Map New forecast layout! Learn more

10-Day Weather Forecast

Advertisements
Track Severe Weather on mobile